Time;durP1;ratioP1;P1;durP2;ratioP2;P2;SDS_P1;SDS_P2;PMS_P1;PMS_P2;Temp;Humidity;BMP_temperature;BMP_pressure;BME280_temperature;BME280_humidity;BME280_pressure;Samples;Min_cycle;Max_cycle;Signal;HPM_P1;HPM_P2
2021/05/13 04:12:55;;;;;;;0.70;0.70;;;11.90;99.90;;;;;;4975666;28;20287;-78
2021/05/13 04:15:23;;;;;;;0.70;0.70;;;12.00;99.90;;;;;;4976655;28;20251;-77
2021/05/13 04:17:50;;;;;;;0.70;0.70;;;12.50;99.90;;;;;;4976573;28;20220;-77
2021/05/13 04:20:18;;;;;;;0.70;0.70;;;12.10;99.90;;;;;;4976939;28;20212;-76
2021/05/13 04:22:45;;;;;;;0.70;0.70;;;11.90;99.90;;;;;;4976841;28;20220;-78
2021/05/13 04:25:13;;;;;;;0.60;0.60;;;11.80;99.90;;;;;;5005277;23;20215;-79
2021/05/13 04:27:41;;;;;;;0.70;0.70;;;11.90;99.90;;;;;;5004017;28;20247;-79
2021/05/13 04:30:13;;;;;;;0.70;0.70;;;11.90;99.90;;;;;;5002279;28;20262;-77
2021/05/13 04:32:40;;;;;;;0.80;0.80;;;11.90;99.90;;;;;;4994207;28;20224;-78
2021/05/13 04:35:09;;;;;;;0.77;0.77;;;11.90;99.90;;;;;;4985437;28;20224;-78
2021/05/13 04:37:36;;;;;;;0.70;0.70;;;12.00;99.90;;;;;;4978763;28;20223;-77
2021/05/13 04:40:05;;;;;;;0.70;0.70;;;12.00;99.90;;;;;;4977803;28;20204;-79
2021/05/13 04:42:32;;;;;;;0.70;0.70;;;12.10;99.90;;;;;;4980137;28;20212;-78
2021/05/13 04:45:00;;;;;;;0.80;0.80;;;;;;;;;;4979579;28;20213;-77
2021/05/13 04:47:34;;;;;;;0.70;0.70;;;12.10;99.90;;;;;;4979183;28;20263;-77
2021/05/13 04:50:02;;;;;;;0.63;0.63;;;;;;;;;;4978416;28;20205;-78
2021/05/13 04:52:29;;;;;;;0.70;0.70;;;12.00;99.90;;;;;;4977661;28;20701;-77
2021/05/13 04:54:58;;;;;;;0.60;0.60;;;12.00;99.90;;;;;;4978683;28;20207;-77
2021/05/13 04:57:26;;;;;;;0.70;0.70;;;12.00;99.90;;;;;;4978658;28;20669;-77
2021/05/13 04:59:55;;;;;;;0.50;0.50;;;12.00;99.90;;;;;;4977311;28;20208;-78
2021/05/13 05:02:22;;;;;;;0.70;0.70;;;12.20;99.90;;;;;;4977445;28;20284;-78
2021/05/13 05:04:51;;;;;;;0.70;0.70;;;12.20;99.90;;;;;;4977482;28;20666;-78
2021/05/13 05:07:18;;;;;;;0.63;0.63;;;12.10;99.90;;;;;;4977545;28;20673;-78
2021/05/13 05:09:45;;;;;;;0.60;0.60;;;12.20;99.90;;;;;;4977871;28;20267;-79
2021/05/13 05:12:14;;;;;;;0.68;0.68;;;12.00;99.90;;;;;;4978819;28;20224;-78
2021/05/13 05:14:41;;;;;;;0.70;0.70;;;12.10;99.90;;;;;;4980283;28;20272;-79
2021/05/13 05:17:09;;;;;;;0.70;0.70;;;12.10;99.90;;;;;;4979403;28;20348;-79
2021/05/13 05:19:37;;;;;;;0.60;0.60;;;12.00;99.90;;;;;;4983579;28;20201;-78
2021/05/13 05:22:06;;;;;;;0.70;0.70;;;12.10;99.90;;;;;;4981178;28;20196;-78
2021/05/13 05:24:34;;;;;;;0.70;0.70;;;12.70;99.90;;;;;;4979888;28;20267;-77
2021/05/13 05:27:01;;;;;;;0.70;0.70;;;11.90;99.90;;;;;;4978312;28;20240;-79
2021/05/13 05:29:29;;;;;;;0.70;0.70;;;11.90;99.90;;;;;;4978060;28;20673;-79
2021/05/13 05:31:56;;;;;;;0.80;0.80;;;13.60;99.90;;;;;;4978104;28;20231;-79
2021/05/13 05:34:24;;;;;;;0.73;0.73;;;11.80;99.90;;;;;;4977076;28;20205;-79
2021/05/13 05:36:52;;;;;;;0.70;0.70;;;11.70;99.90;;;;;;4977455;28;20245;-79
2021/05/13 05:39:21;;;;;;;0.70;0.70;;;11.90;99.90;;;;;;4977914;28;20201;-78
2021/05/13 05:41:48;;;;;;;0.70;0.70;;;12.00;99.90;;;;;;4981843;28;20197;-78
2021/05/13 05:44:15;;;;;;;0.60;0.60;;;11.90;99.90;;;;;;4982253;28;20216;-78
2021/05/13 05:46:43;;;;;;;0.60;0.60;;;11.80;99.90;;;;;;4980973;28;20768;-78
2021/05/13 05:49:10;;;;;;;0.70;0.70;;;11.90;99.90;;;;;;4981692;28;20205;-78
2021/05/13 05:51:38;;;;;;;0.70;0.70;;;11.90;99.90;;;;;;4982619;28;20224;-78
2021/05/13 05:54:06;;;;;;;0.70;0.70;;;12.00;99.90;;;;;;4980957;28;20275;-78
2021/05/13 05:56:35;;;;;;;0.70;0.70;;;12.20;99.90;;;;;;4980879;28;20231;-78
2021/05/13 05:59:02;;;;;;;0.70;0.70;;;12.20;99.90;;;;;;4979778;28;20230;-78
2021/05/13 06:01:30;;;;;;;0.60;0.60;;;12.20;99.90;;;;;;4980948;28;20231;-78
2021/05/13 06:03:58;;;;;;;0.70;0.70;;;12.20;99.90;;;;;;4980911;28;20278;-79
2021/05/13 06:06:26;;;;;;;0.68;0.68;;;12.20;99.90;;;;;;4978859;28;20236;-78
2021/05/13 06:08:53;;;;;;;0.60;0.60;;;12.10;99.90;;;;;;4979445;28;20616;-77
2021/05/13 06:11:21;;;;;;;0.70;0.70;;;12.20;99.90;;;;;;4980782;28;20252;-81
2021/05/13 06:13:49;;;;;;;0.60;0.60;;;14.10;99.90;;;;;;4980469;28;20212;-78
2021/05/13 06:16:18;;;;;;;0.70;0.70;;;;;;;;;;4980488;28;20295;-78
2021/05/13 06:18:49;;;;;;;0.70;0.70;;;12.20;99.90;;;;;;4978556;28;20203;-78
2021/05/13 06:21:17;;;;;;;0.70;0.70;;;12.20;99.90;;;;;;4979670;28;20200;-80
2021/05/13 06:23:50;;;;;;;0.52;0.52;;;12.10;99.90;;;;;;4982245;28;20204;-79
2021/05/13 06:26:25;;;;;;;0.70;0.70;;;12.10;99.90;;;;;;4986415;28;20232;-79
2021/05/13 06:29:02;;;;;;;0.70;0.70;;;11.90;99.90;;;;;;4981400;28;20240;-79
2021/05/13 06:31:30;;;;;;;0.73;0.73;;;12.00;99.90;;;;;;4980431;28;20227;-79
2021/05/13 06:33:58;;;;;;;0.60;0.60;;;12.00;99.90;;;;;;4980497;28;20215;-79
2021/05/13 06:36:26;;;;;;;0.70;0.70;;;12.00;99.90;;;;;;4979677;28;20225;-80
2021/05/13 06:38:53;;;;;;;0.80;0.80;;;12.00;99.90;;;;;;4995383;28;20204;-77
2021/05/13 06:41:21;;;;;;;0.60;0.60;;;12.00;99.90;;;;;;4997614;28;20227;-78
2021/05/13 06:43:48;;;;;;;0.70;0.70;;;12.10;99.90;;;;;;4998070;28;20656;-78
2021/05/13 06:46:16;;;;;;;0.70;0.70;;;11.90;99.90;;;;;;4997632;28;20228;-78
2021/05/13 06:48:48;;;;;;;0.68;0.68;;;12.00;99.90;;;;;;4997984;28;20271;-78
2021/05/13 06:51:16;;;;;;;0.70;0.70;;;12.00;99.90;;;;;;4997075;28;20263;-77
2021/05/13 06:53:43;;;;;;;0.75;0.75;;;12.00;99.90;;;;;;4993999;28;20239;-75
2021/05/13 06:56:10;;;;;;;0.70;0.70;;;11.90;99.90;;;;;;4992867;28;20224;-77
2021/05/13 06:58:38;;;;;;;0.70;0.70;;;12.00;99.90;;;;;;4993027;28;20228;-77
2021/05/13 07:01:06;;;;;;;0.80;0.80;;;12.00;99.90;;;;;;4994249;28;20215;-79
2021/05/13 07:03:34;;;;;;;0.75;0.75;;;13.90;99.90;;;;;;4982995;28;20606;-79
2021/05/13 07:06:02;;;;;;;0.70;0.70;;;12.00;99.90;;;;;;4975667;28;20224;-78
2021/05/13 07:08:29;;;;;;;0.70;0.70;;;12.00;99.90;;;;;;4979516;28;20228;-79
2021/05/13 07:10:58;;;;;;;0.70;0.70;;;11.90;99.90;;;;;;4983780;28;20250;-79
2021/05/13 07:13:26;;;;;;;0.70;0.70;;;11.80;99.90;;;;;;4982882;28;20283;-79
2021/05/13 07:15:53;;;;;;;0.70;0.70;;;11.90;99.90;;;;;;4983077;28;20229;-78
2021/05/13 07:18:21;;;;;;;0.70;0.70;;;;;;;;;;4985024;28;20185;-78
2021/05/13 07:20:49;;;;;;;0.60;0.60;;;12.10;99.90;;;;;;4993484;28;20631;-78
2021/05/13 07:23:17;;;;;;;0.70;0.70;;;11.90;99.90;;;;;;4984828;28;20192;-78
2021/05/13 07:25:45;;;;;;;0.70;0.70;;;11.90;99.90;;;;;;4989672;28;20236;-78
2021/05/13 07:28:13;;;;;;;0.70;0.70;;;11.90;99.90;;;;;;4987132;28;20331;-78
2021/05/13 07:30:42;;;;;;;0.70;0.70;;;11.80;99.90;;;;;;4982914;28;20207;-78
2021/05/13 07:33:10;;;;;;;0.70;0.70;;;11.90;99.90;;;;;;4981583;28;20207;-78
2021/05/13 07:35:37;;;;;;;0.70;0.70;;;11.90;99.90;;;;;;4987285;28;20240;-78
2021/05/13 07:38:06;;;;;;;0.70;0.70;;;11.80;99.90;;;;;;4994551;28;20737;-78
2021/05/13 07:40:36;;;;;;;0.80;0.80;;;11.90;99.90;;;;;;4993423;28;20200;-78
2021/05/13 07:43:03;;;;;;;0.75;0.75;;;11.70;99.90;;;;;;4991920;28;20208;-79
2021/05/13 07:45:33;;;;;;;0.70;0.70;;;12.10;99.90;;;;;;4986664;28;20314;-78
2021/05/13 07:48:00;;;;;;;0.80;0.80;;;11.80;99.90;;;;;;4994727;28;20254;-79
2021/05/13 07:50:29;;;;;;;0.80;0.80;;;11.70;99.90;;;;;;4988043;28;20196;-78
2021/05/13 07:52:56;;;;;;;0.70;0.70;;;11.70;99.90;;;;;;4991364;28;20690;-78
2021/05/13 07:55:25;;;;;;;0.75;0.75;;;11.80;99.90;;;;;;4987726;28;20219;-78
2021/05/13 07:57:52;;;;;;;0.70;0.70;;;11.80;99.90;;;;;;4991179;28;20208;-78
2021/05/13 08:00:20;;;;;;;0.70;0.70;;;11.80;99.90;;;;;;4984536;28;20204;-79
2021/05/13 08:02:47;;;;;;;0.70;0.70;;;11.90;99.90;;;;;;4991247;28;20216;-78
2021/05/13 08:05:15;;;;;;;0.80;0.80;;;11.80;99.90;;;;;;4993214;28;20649;-79
2021/05/13 08:07:42;;;;;;;0.70;0.70;;;11.80;99.90;;;;;;4985308;28;20259;-79
2021/05/13 08:10:11;;;;;;;0.80;0.80;;;11.90;99.90;;;;;;4982221;28;20248;-80
2021/05/13 08:12:40;;;;;;;0.80;0.80;;;11.90;99.90;;;;;;4982395;28;20317;-80
2021/05/13 08:15:10;;;;;;;0.70;0.70;;;11.90;99.90;;;;;;4981024;28;20643;-80
2021/05/13 08:17:38;;;;;;;0.80;0.80;;;12.10;99.90;;;;;;4983506;28;20212;-80
2021/05/13 08:20:08;;;;;;;0.70;0.70;;;12.00;99.90;;;;;;4982130;28;20231;-80
2021/05/13 08:22:47;;;;;;;0.70;0.70;;;12.00;99.90;;;;;;4985945;28;20204;-79
2021/05/13 08:25:19;;;;;;;0.70;0.70;;;12.00;99.90;;;;;;4998411;28;20761;-79
2021/05/13 08:27:54;;;;;;;0.70;0.70;;;10.80;99.90;;;;;;4992495;28;20224;-77
2021/05/13 08:30:35;;;;;;;0.70;0.70;;;12.60;99.90;;;;;;4986065;28;20316;-79
2021/05/13 08:33:17;;;;;;;0.80;0.80;;;12.00;99.90;;;;;;4981877;28;20224;-78
2021/05/13 08:35:45;;;;;;;0.73;0.73;;;13.50;99.90;;;;;;4983932;28;20212;-77
2021/05/13 08:41:20;;;;;;;0.80;0.80;;;11.80;99.90;;;;;;4989352;28;20207;-78
2021/05/13 08:43:52;;;;;;;0.80;0.80;;;13.40;99.90;;;;;;4999485;28;20196;-78
2021/05/13 08:46:24;;;;;;;0.80;0.80;;;11.80;99.90;;;;;;4989813;28;20283;-79
2021/05/13 08:48:52;;;;;;;0.70;0.70;;;10.50;99.90;;;;;;4989138;28;20188;-78
2021/05/13 08:51:19;;;;;;;0.75;0.75;;;11.00;99.90;;;;;;4999239;28;20200;-78
2021/05/13 08:57:36;;;;;;;0.70;0.70;;;13.60;99.90;;;;;;4978145;28;20276;-77
2021/05/13 09:00:07;;;;;;;0.90;0.90;;;12.60;99.90;;;;;;4978616;28;20227;-79
2021/05/13 09:02:35;;;;;;;0.70;0.70;;;11.70;99.90;;;;;;4997286;28;20246;-78
2021/05/13 09:05:03;;;;;;;0.70;0.70;;;11.80;99.90;;;;;;4983983;28;20219;-78
2021/05/13 09:07:32;;;;;;;0.80;0.80;;;11.80;99.90;;;;;;4979317;28;20209;-78
2021/05/13 09:10:03;;;;;;;0.70;0.70;;;14.80;99.90;;;;;;4991893;28;20485;-78
2021/05/13 09:12:32;;;;;;;0.80;0.80;;;11.80;99.90;;;;;;4979688;28;20236;-78
2021/05/13 09:15:02;;;;;;;0.70;0.70;;;11.60;99.90;;;;;;4980710;28;20593;-78
2021/05/13 09:17:31;;;;;;;0.75;0.75;;;11.40;99.90;;;;;;4994418;28;20196;-79
2021/05/13 09:20:00;;;;;;;0.80;0.80;;;11.60;99.90;;;;;;4990390;28;20200;-79
2021/05/13 09:22:29;;;;;;;0.80;0.80;;;11.30;99.90;;;;;;4989969;28;20192;-78
2021/05/13 09:24:59;;;;;;;0.80;0.80;;;11.80;99.90;;;;;;4977284;28;20217;-78
2021/05/13 09:27:29;;;;;;;0.90;0.90;;;11.80;99.90;;;;;;4978717;28;20216;-78
2021/05/13 09:30:14;;;;;;;0.80;0.80;;;11.80;99.90;;;;;;4982923;28;20193;-78
2021/05/13 09:32:44;;;;;;;0.80;0.80;;;11.80;99.90;;;;;;4994905;28;20235;-78
2021/05/13 09:35:14;;;;;;;0.70;0.70;;;11.70;99.90;;;;;;4983151;28;20225;-79
2021/05/13 09:37:44;;;;;;;0.80;0.80;;;11.40;99.90;;;;;;4978866;28;20557;-77
2021/05/13 09:40:13;;;;;;;0.80;0.80;;;11.50;99.90;;;;;;4994465;28;20199;-78
2021/05/13 09:42:40;;;;;;;0.70;0.70;;;11.80;99.90;;;;;;4988146;28;20204;-78
2021/05/13 09:45:10;;;;;;;0.63;0.63;;;11.90;99.90;;;;;;4997710;28;20224;-78
2021/05/13 09:47:38;;;;;;;0.70;0.70;;;12.10;99.90;;;;;;5000954;28;20230;-78
2021/05/13 09:50:10;;;;;;;0.70;0.70;;;11.80;99.90;;;;;;4991109;28;20200;-78
2021/05/13 09:52:40;;;;;;;0.77;0.77;;;12.00;99.90;;;;;;4991056;28;20204;-79
2021/05/13 09:55:12;;;;;;;0.70;0.70;;;12.10;99.90;;;;;;4982374;28;20212;-78
2021/05/13 09:57:41;;;;;;;0.70;0.70;;;12.80;99.90;;;;;;4991837;28;20200;-79
2021/05/13 10:00:09;;;;;;;0.63;0.63;;;11.90;99.90;;;;;;4984068;28;20208;-77
2021/05/13 10:02:37;;;;;;;0.63;0.63;;;11.90;99.90;;;;;;4996521;28;20238;-78
2021/05/13 10:05:05;;;;;;;0.70;0.70;;;11.70;99.90;;;;;;4989959;28;20228;-78
2021/05/13 10:07:36;;;;;;;0.70;0.70;;;11.90;99.90;;;;;;4980942;28;20216;-79
2021/05/13 10:10:08;;;;;;;0.70;0.70;;;13.80;99.90;;;;;;4981870;28;20201;-76
2021/05/13 10:12:36;;;;;;;0.80;0.80;;;11.80;99.90;;;;;;4975918;28;20189;-75
2021/05/13 10:15:06;;;;;;;0.80;0.80;;;11.80;99.90;;;;;;4973458;28;20731;-76
2021/05/13 10:17:33;;;;;;;0.70;0.70;;;11.70;99.90;;;;;;4974015;28;20295;-76
2021/05/13 10:20:01;;;;;;;0.80;0.80;;;11.70;99.90;;;;;;4973587;28;20205;-76
2021/05/13 10:22:29;;;;;;;0.80;0.80;;;11.60;99.90;;;;;;4973920;28;20204;-76
2021/05/13 10:25:19;;;;;;;0.80;0.80;;;11.90;99.90;;;;;;4973364;28;20629;-75
2021/05/13 10:27:53;;;;;;;0.80;0.80;;;11.40;99.90;;;;;;4989356;28;20207;-77
2021/05/13 10:30:28;;;;;;;0.90;0.90;;;11.40;99.90;;;;;;4976435;28;20251;-77
2021/05/13 10:33:17;;;;;;;0.85;0.85;;;11.40;99.90;;;;;;4976702;28;20232;-79
2021/05/13 10:36:04;;;;;;;0.88;0.88;;;11.40;99.90;;;;;;4992456;28;20343;-79
2021/05/13 10:38:47;;;;;;;0.70;0.70;;;11.60;99.90;;;;;;5004347;28;20207;-79
2021/05/13 10:41:45;;;;;;;0.80;0.80;;;11.40;99.90;;;;;;4987694;28;20204;-79
2021/05/13 10:44:36;;;;;;;0.70;0.70;;;11.40;99.90;;;;;;4940777;29;20190;-78
2021/05/13 10:47:07;;;;;;;0.82;0.82;;;11.60;99.90;;;;;;4962874;28;20228;-77
2021/05/13 10:49:48;;;;;;;0.90;0.90;;;12.80;99.90;;;;;;4967205;28;20203;-77
2021/05/13 10:52:36;;;;;;;0.80;0.80;;;11.60;99.90;;;;;;4969255;28;20260;-77
2021/05/13 10:55:06;;;;;;;0.90;0.90;;;11.60;99.90;;;;;;4964995;28;20221;-78
2021/05/13 10:57:49;;;;;;;0.80;0.80;;;11.50;99.90;;;;;;4971225;28;20254;-78
2021/05/13 11:00:25;;;;;;;0.80;0.80;;;11.40;99.90;;;;;;4967088;28;20228;-76
2021/05/13 11:02:53;;;;;;;0.80;0.80;;;11.40;99.90;;;;;;4966148;28;20262;-76
2021/05/13 11:05:43;;;;;;;0.90;0.90;;;11.40;99.90;;;;;;4965415;28;20271;-76
2021/05/13 11:08:46;;;;;;;0.80;0.80;;;11.50;99.90;;;;;;4966740;28;20209;-77
2021/05/13 11:11:13;;;;;;;0.80;0.80;;;11.60;99.90;;;;;;4967986;28;20201;-77
2021/05/13 11:13:47;;;;;;;0.90;0.90;;;11.60;99.90;;;;;;4971667;28;20565;-77
2021/05/13 11:16:48;;;;;;;0.70;0.70;;;11.60;99.90;;;;;;4967920;28;20224;-77
2021/05/13 11:19:19;;;;;;;0.70;0.70;;;11.60;99.90;;;;;;4974938;28;20739;-77
2021/05/13 11:22:05;;;;;;;0.90;0.90;;;12.00;99.90;;;;;;4973978;28;20271;-76
2021/05/13 11:24:38;;;;;;;0.70;0.70;;;11.80;99.90;;;;;;4970147;28;20220;-77
2021/05/13 11:27:08;;;;;;;0.70;0.70;;;11.80;99.90;;;;;;4966406;28;20248;-76
2021/05/13 11:29:49;;;;;;;0.70;0.70;;;11.80;99.90;;;;;;4967517;28;20244;-76
2021/05/13 11:32:18;;;;;;;0.70;0.70;;;11.80;99.90;;;;;;4966303;28;20196;-77
2021/05/13 11:34:47;;;;;;;0.80;0.80;;;11.80;99.90;;;;;;4965949;28;20225;-76
2021/05/13 11:37:50;;;;;;;0.80;0.80;;;11.70;99.90;;;;;;4970863;28;20224;-76
2021/05/13 11:40:25;;;;;;;0.77;0.77;;;11.80;99.90;;;;;;4908944;29;20196;-77
2021/05/13 11:43:13;;;;;;;0.73;0.73;;;11.80;99.90;;;;;;4960956;28;20608;-77
2021/05/13 11:45:42;;;;;;;0.80;0.80;;;11.90;99.90;;;;;;4966159;28;20737;-77
2021/05/13 11:48:25;;;;;;;0.70;0.70;;;11.90;99.90;;;;;;4964210;28;20682;-77
2021/05/13 11:50:53;;;;;;;0.73;0.73;;;12.00;99.90;;;;;;4969468;28;20201;-76
2021/05/13 11:53:23;;;;;;;0.70;0.70;;;12.10;99.90;;;;;;4964795;28;20221;-77
2021/05/13 11:55:51;;;;;;;0.75;0.75;;;12.10;99.90;;;;;;4967919;28;20619;-77
2021/05/13 11:58:39;;;;;;;0.80;0.80;;;12.10;99.90;;;;;;4966207;28;20200;-78
2021/05/13 12:01:19;;;;;;;0.70;0.70;;;12.20;99.90;;;;;;4967236;28;20733;-77
2021/05/13 12:03:47;;;;;;;0.80;0.80;;;12.20;99.90;;;;;;4964127;28;20689;-76
2021/05/13 12:06:15;;;;;;;0.80;0.80;;;12.10;99.90;;;;;;4967406;28;20221;-76
2021/05/13 12:08:43;;;;;;;0.70;0.70;;;12.00;99.90;;;;;;4966169;28;20193;-78
2021/05/13 12:11:18;;;;;;;0.70;0.70;;;11.90;99.90;;;;;;4963031;28;20742;-76
2021/05/13 12:13:46;;;;;;;0.70;0.70;;;12.00;99.90;;;;;;4957624;29;20698;-77
2021/05/13 12:16:15;;;;;;;0.70;0.70;;;12.20;99.90;;;;;;4972699;28;20361;-77
2021/05/13 12:18:43;;;;;;;0.80;0.80;;;12.10;99.90;;;;;;4975587;28;20201;-78
2021/05/13 12:21:13;;;;;;;0.70;0.70;;;12.00;99.90;;;;;;4974916;28;20247;-78
2021/05/13 12:23:42;;;;;;;0.80;0.80;;;12.00;99.90;;;;;;4975914;28;20193;-77
2021/05/13 12:26:11;;;;;;;0.70;0.70;;;11.90;99.90;;;;;;4975249;28;20280;-77
2021/05/13 12:28:42;;;;;;;0.70;0.70;;;12.00;99.90;;;;;;4975536;28;20208;-77
2021/05/13 12:31:09;;;;;;;0.70;0.70;;;12.10;99.90;;;;;;4975414;28;20666;-77
2021/05/13 12:33:41;;;;;;;0.80;0.80;;;12.10;99.90;;;;;;4974783;28;20583;-77
2021/05/13 12:36:11;;;;;;;0.70;0.70;;;12.10;99.90;;;;;;4975704;28;20231;-77
2021/05/13 12:38:42;;;;;;;0.77;0.77;;;12.20;99.90;;;;;;4975542;28;20208;-77
2021/05/13 12:41:12;;;;;;;0.70;0.70;;;12.20;99.90;;;;;;4975132;28;20220;-76
2021/05/13 12:43:40;;;;;;;0.70;0.70;;;12.40;99.90;;;;;;4974586;28;20193;-77
2021/05/13 12:46:19;;;;;;;0.70;0.70;;;12.30;99.90;;;;;;4975154;28;20275;-77
2021/05/13 12:48:49;;;;;;;0.70;0.70;;;12.30;99.90;;;;;;4974403;28;20296;-77
2021/05/13 12:51:19;;;;;;;0.70;0.70;;;12.30;99.90;;;;;;4974181;28;20208;-78
2021/05/13 12:53:52;;;;;;;0.68;0.68;;;12.50;99.90;;;;;;4973172;28;20232;-77
2021/05/13 12:56:24;;;;;;;0.80;0.80;;;12.50;99.90;;;;;;4975931;28;20636;-78
2021/05/13 12:59:03;;;;;;;0.70;0.70;;;12.40;99.90;;;;;;4974086;28;20204;-78
2021/05/13 13:01:31;;;;;;;0.80;0.80;;;12.40;99.90;;;;;;4973350;28;20205;-77
2021/05/13 13:04:01;;;;;;;0.60;0.60;;;12.40;99.90;;;;;;4973194;28;20295;-77
2021/05/13 13:06:28;;;;;;;0.75;0.75;;;12.20;99.90;;;;;;4973730;28;20697;-76
2021/05/13 13:08:56;;;;;;;0.70;0.70;;;12.20;99.90;;;;;;4973739;28;20259;-76
2021/05/13 13:11:35;;;;;;;0.70;0.70;;;12.20;99.90;;;;;;4973528;28;20205;-77
2021/05/13 13:14:06;;;;;;;0.80;0.80;;;12.20;99.90;;;;;;4961544;28;21076;-81
2021/05/13 13:16:37;;;;;;;0.70;0.70;;;12.20;99.90;;;;;;4957600;28;20295;-80
2021/05/13 13:19:08;;;;;;;0.82;0.82;;;12.20;99.90;;;;;;4954256;28;20202;-77
2021/05/13 13:21:36;;;;;;;0.70;0.70;;;12.20;99.90;;;;;;4971849;28;20659;-78
2021/05/13 13:24:18;;;;;;;0.70;0.70;;;12.20;99.90;;;;;;4972733;28;20201;-78
2021/05/13 13:26:47;;;;;;;0.70;0.70;;;12.20;99.90;;;;;;4972805;28;20798;-79
2021/05/13 13:29:15;;;;;;;0.70;0.70;;;12.10;99.90;;;;;;4972720;28;20211;-78
2021/05/13 13:31:44;;;;;;;0.70;0.70;;;12.20;99.90;;;;;;4971914;28;20208;-78
2021/05/13 13:34:14;;;;;;;0.70;0.70;;;12.20;99.90;;;;;;4972508;28;20239;-78
2021/05/13 13:36:41;;;;;;;0.77;0.77;;;12.20;99.90;;;;;;4972645;28;20247;-78
2021/05/13 13:39:09;;;;;;;0.70;0.70;;;12.20;99.90;;;;;;4973142;28;20232;-78
2021/05/13 13:41:37;;;;;;;0.70;0.70;;;12.10;99.90;;;;;;4973090;28;20209;-78
2021/05/13 13:44:05;;;;;;;0.77;0.77;;;12.10;99.90;;;;;;4973673;28;20267;-78
2021/05/13 13:46:32;;;;;;;0.77;0.77;;;12.00;99.90;;;;;;4973161;28;20236;-77
2021/05/13 13:49:00;;;;;;;0.70;0.70;;;12.00;99.90;;;;;;4972755;28;20247;-78
2021/05/13 13:51:28;;;;;;;0.70;0.70;;;12.00;99.90;;;;;;4972465;28;20555;-78
2021/05/13 13:53:55;;;;;;;0.80;0.80;;;11.90;99.90;;;;;;4973012;28;20221;-78
2021/05/13 13:56:23;;;;;;;0.80;0.80;;;11.90;99.90;;;;;;4973655;28;20300;-78
2021/05/13 13:58:50;;;;;;;0.80;0.80;;;12.00;99.90;;;;;;4973589;28;20243;-78
2021/05/13 14:01:17;;;;;;;0.80;0.80;;;12.00;99.90;;;;;;4972498;28;20255;-78
2021/05/13 14:03:45;;;;;;;0.70;0.70;;;12.00;99.90;;;;;;4973134;28;20201;-78
2021/05/13 14:06:12;;;;;;;0.75;0.75;;;12.10;99.90;;;;;;4973869;28;20228;-78
2021/05/13 14:08:40;;;;;;;0.70;0.70;;;12.10;99.90;;;;;;4974904;28;20624;-79
2021/05/13 14:11:08;;;;;;;0.70;0.70;;;12.10;99.90;;;;;;4975775;28;20204;-79
2021/05/13 14:13:35;;;;;;;0.70;0.70;;;12.10;99.90;;;;;;4976891;28;20554;-80
2021/05/13 14:16:03;;;;;;;0.70;0.70;;;12.10;99.90;;;;;;4976247;28;20775;-79
2021/05/13 14:18:31;;;;;;;0.60;0.60;;;12.20;99.90;;;;;;4975744;28;20570;-78
2021/05/13 14:20:58;;;;;;;0.70;0.70;;;12.10;99.90;;;;;;4974032;28;20625;-79
2021/05/13 14:23:26;;;;;;;0.70;0.70;;;12.00;99.90;;;;;;4974127;28;20227;-79
2021/05/13 14:25:54;;;;;;;0.80;0.80;;;12.00;99.90;;;;;;4974040;28;20228;-78
2021/05/13 14:28:21;;;;;;;0.75;0.75;;;11.90;99.90;;;;;;4973634;28;20258;-77
2021/05/13 14:30:49;;;;;;;0.70;0.70;;;12.00;99.90;;;;;;4972484;28;20678;-77
2021/05/13 14:33:16;;;;;;;0.60;0.60;;;12.10;99.90;;;;;;4972551;28;20227;-78
2021/05/13 14:35:44;;;;;;;0.75;0.75;;;12.10;99.90;;;;;;4971872;28;20236;-78
2021/05/13 14:38:11;;;;;;;0.80;0.80;;;12.20;99.90;;;;;;4972918;28;20263;-77
2021/05/13 14:40:42;;;;;;;0.77;0.77;;;12.10;99.90;;;;;;4972695;28;20212;-78
2021/05/13 14:43:10;;;;;;;0.90;0.90;;;12.00;99.90;;;;;;4976505;28;20255;-77
2021/05/13 14:45:37;;;;;;;0.70;0.70;;;12.10;99.90;;;;;;4976351;28;20231;-78
2021/05/13 14:48:13;;;;;;;0.88;0.88;;;12.10;99.90;;;;;;4976381;28;20255;-78
2021/05/13 14:50:41;;;;;;;0.82;0.82;;;12.30;99.90;;;;;;4976325;28;20208;-78
2021/05/13 14:53:08;;;;;;;0.70;0.70;;;12.20;99.90;;;;;;4976544;28;20207;-78
2021/05/13 14:55:36;;;;;;;0.80;0.80;;;12.20;99.90;;;;;;4976190;28;20228;-77
2021/05/13 14:58:06;;;;;;;0.77;0.77;;;12.20;99.90;;;;;;4976399;28;20205;-77
2021/05/13 15:00:37;;;;;;;0.60;0.60;;;12.30;99.90;;;;;;4975877;28;20215;-78
2021/05/13 15:03:05;;;;;;;0.73;0.73;;;12.30;99.90;;;;;;4976238;28;20205;-78
2021/05/13 15:05:35;;;;;;;0.80;0.80;;;12.10;99.90;;;;;;4975606;28;20291;-78
2021/05/13 15:08:02;;;;;;;0.73;0.73;;;12.10;99.90;;;;;;4975715;28;20709;-77
2021/05/13 15:10:30;;;;;;;0.80;0.80;;;12.10;99.90;;;;;;4976102;28;20209;-78
2021/05/13 15:12:57;;;;;;;0.70;0.70;;;12.10;99.90;;;;;;4973300;28;20201;-78
2021/05/13 15:15:25;;;;;;;0.70;0.70;;;12.10;99.90;;;;;;4965930;28;20566;-78
2021/05/13 15:17:54;;;;;;;0.70;0.70;;;12.10;99.90;;;;;;4962649;29;20201;-78
2021/05/13 15:20:22;;;;;;;0.80;0.80;;;12.00;99.90;;;;;;4962639;29;20209;-78
2021/05/13 15:22:49;;;;;;;0.80;0.80;;;12.20;99.90;;;;;;4963175;29;20684;-77
2021/05/13 15:25:17;;;;;;;0.70;0.70;;;11.90;99.90;;;;;;4963603;29;20256;-78
2021/05/13 15:27:44;;;;;;;0.70;0.70;;;12.00;99.90;;;;;;4963799;28;20662;-78
2021/05/13 15:30:12;;;;;;;0.73;0.73;;;11.90;99.90;;;;;;4961513;29;20720;-77
2021/05/13 15:32:40;;;;;;;0.80;0.80;;;11.90;99.90;;;;;;4961262;28;20695;-76
2021/05/13 15:35:10;;;;;;;0.70;0.70;;;11.90;99.90;;;;;;4971506;28;20248;-76
2021/05/13 15:37:38;;;;;;;0.70;0.70;;;12.10;99.90;;;;;;4965118;28;20206;-75
2021/05/13 15:40:06;;;;;;;0.60;0.60;;;12.10;99.90;;;;;;4965826;28;20221;-75
2021/05/13 15:42:34;;;;;;;0.70;0.70;;;12.10;99.90;;;;;;4966070;28;20721;-75
2021/05/13 15:45:01;;;;;;;0.70;0.70;;;12.20;99.90;;;;;;4963969;28;20193;-75
2021/05/13 15:47:28;;;;;;;0.70;0.70;;;12.30;99.90;;;;;;4965145;28;20713;-74
2021/05/13 15:49:56;;;;;;;0.80;0.80;;;12.20;99.90;;;;;;4971548;28;20201;-77
2021/05/13 15:52:24;;;;;;;0.70;0.70;;;12.20;99.90;;;;;;4978051;28;20205;-77
2021/05/13 15:54:51;;;;;;;0.70;0.70;;;12.20;99.90;;;;;;4975341;28;20217;-77
2021/05/13 15:57:19;;;;;;;0.80;0.80;;;12.10;99.90;;;;;;4973342;28;20204;-77
2021/05/13 15:59:46;;;;;;;0.60;0.60;;;11.90;99.90;;;;;;4975386;28;20263;-76
2021/05/13 16:02:13;;;;;;;0.80;0.80;;;11.90;99.90;;;;;;4979080;28;20205;-78
2021/05/13 16:04:41;;;;;;;0.80;0.80;;;11.80;99.90;;;;;;4973908;28;20225;-78
2021/05/13 16:07:16;;;;;;;0.60;0.60;;;11.90;99.90;;;;;;4965431;28;20603;-77
2021/05/13 16:09:46;;;;;;;0.80;0.80;;;11.80;99.90;;;;;;4961695;28;20292;-77
2021/05/13 16:12:15;;;;;;;0.80;0.80;;;11.80;99.90;;;;;;4959295;29;20205;-77
2021/05/13 16:14:43;;;;;;;0.80;0.80;;;11.70;99.90;;;;;;4955610;29;20221;-77
2021/05/13 16:17:12;;;;;;;0.80;0.80;;;11.70;99.90;;;;;;4971578;28;20311;-77
2021/05/13 16:19:39;;;;;;;0.70;0.70;;;11.70;99.90;;;;;;4974368;28;20308;-76
2021/05/13 16:22:06;;;;;;;0.70;0.70;;;11.60;99.90;;;;;;4968008;28;20209;-76
2021/05/13 16:24:34;;;;;;;0.80;0.80;;;11.50;99.90;;;;;;4972608;28;20213;-78
2021/05/13 16:27:02;;;;;;;1.00;1.00;;;11.50;99.90;;;;;;4956851;28;20232;-75
2021/05/13 16:29:30;;;;;;;0.70;0.70;;;11.50;99.90;;;;;;4970968;28;20567;-76
2021/05/13 16:31:57;;;;;;;0.70;0.70;;;11.40;99.90;;;;;;4974235;28;20697;-74
2021/05/13 16:34:24;;;;;;;0.73;0.73;;;11.50;99.90;;;;;;4974113;28;20740;-76
2021/05/13 16:36:52;;;;;;;0.80;0.80;;;11.50;99.90;;;;;;4975007;28;20224;-76
2021/05/13 16:39:20;;;;;;;0.75;0.75;;;11.60;99.90;;;;;;4974485;28;20212;-76
2021/05/13 16:41:47;;;;;;;0.80;0.80;;;11.60;99.90;;;;;;4975404;28;20209;-76
2021/05/13 16:44:16;;;;;;;0.70;0.70;;;11.60;99.90;;;;;;4969731;28;20220;-77
2021/05/13 16:46:45;;;;;;;0.95;0.95;;;11.50;99.90;;;;;;4960928;28;20572;-77
2021/05/13 16:49:12;;;;;;;0.70;0.70;;;11.40;99.90;;;;;;4955221;29;20213;-76
2021/05/13 16:51:40;;;;;;;0.80;0.80;;;11.40;99.90;;;;;;4954747;29;20708;-76
2021/05/13 16:54:07;;;;;;;0.90;0.90;;;11.40;99.90;;;;;;4954713;29;20213;-77
2021/05/13 16:56:35;;;;;;;0.80;0.80;;;11.40;99.90;;;;;;4960312;29;20233;-76
2021/05/13 16:59:02;;;;;;;0.80;0.80;;;11.10;99.90;;;;;;4971911;29;20197;-75
2021/05/13 17:01:31;;;;;;;0.70;0.70;;;11.20;99.90;;;;;;4961430;28;20343;-77
2021/05/13 17:04:01;;;;;;;0.80;0.80;;;11.20;99.90;;;;;;4968906;28;20200;-75
2021/05/13 17:06:29;;;;;;;0.80;0.80;;;11.20;99.90;;;;;;4959100;29;20795;-77
2021/05/13 17:09:01;;;;;;;0.90;0.90;;;11.20;99.90;;;;;;4957126;28;20205;-77
2021/05/13 17:11:29;;;;;;;0.90;0.90;;;11.10;99.90;;;;;;4959166;28;20210;-78
2021/05/13 17:13:57;;;;;;;0.85;0.85;;;11.20;99.90;;;;;;4958238;29;20209;-78
2021/05/13 17:16:24;;;;;;;0.80;0.80;;;11.20;99.90;;;;;;4959428;29;20615;-76
2021/05/13 17:18:54;;;;;;;0.88;0.88;;;11.30;99.90;;;;;;4962605;29;20328;-78
2021/05/13 17:21:21;;;;;;;0.70;0.70;;;11.40;99.90;;;;;;4961990;28;20216;-78